CST,Max TemperatureF,Mean TemperatureF,Min TemperatureF,Max Dew PointF,MeanDew PointF,Min DewpointF,Max Humidity, Mean Humidity, Min Humidity, Max Sea Level PressureIn, Mean Sea Level PressureIn, Min Sea Level PressureIn, Max VisibilityMiles, Mean VisibilityMiles, Min VisibilityMiles, Max Wind SpeedMPH, Mean Wind SpeedMPH, Max Gust SpeedMPH,PrecipitationIn, CloudCover, Events, WindDirDegrees
2013-11-1,73,57,41,54,45,37,100,76,27,29.98,29.85,29.80,10,8,0,13,1,17,0.00,3,Fog,289
2013-11-2,60,48,37,45,39,36,100,75,39,30.26,30.12,29.98,10,10,7,15,3,22,0.00,1,,311
2013-11-3,62,47,32,43,38,32,100,79,42,30.32,30.23,30.14,10,8,2,12,1,,0.00,0,,148
2013-11-4,57,50,44,54,48,43,100,91,72,30.25,30.20,30.15,10,7,1,5,0,,0.23,3,Rain,159
2013-11-5,62,58,53,61,56,54,100,94,82,30.23,30.16,30.06,10,6,2,6,1,,0.63,7,Rain,105
2013-11-6,62,50,37,63,51,36,100,88,71,30.34,30.13,29.99,10,8,1,14,4,20,1.47,7,Rain,330
2013-11-7,64,48,32,43,36,32,100,78,32,30.48,30.39,30.33,10,7,0,13,1,,0.01,1,Fog,311
2013-11-8,64,48,32,45,38,32,100,78,37,30.40,30.30,30.19,10,8,0,8,1,,0.00,1,Fog,156
2013-11-9,62,50,39,52,46,37,100,85,59,30.28,30.23,30.18,10,10,7,8,1,,0.00,5,,214
2013-11-10,68,54,39,46,43,39,100,75,37,30.39,30.33,30.28,10,8,3,7,1,,0.00,2,,98
2013-11-11,69,53,37,52,43,37,100,79,40,30.32,30.26,30.18,10,8,5,7,1,,0.00,3,,206
2013-11-12,62,44,26,54,27,12,86,61,25,30.72,30.61,30.28,10,10,5,15,7,23,0.00,3,,355
2013-11-13,48,36,23,30,22,14,93,70,25,30.74,30.60,30.43,10,10,5,7,1,,0.00,0,,204
2013-11-14,55,39,23,37,28,21,100,70,30,30.43,30.28,30.12,10,10,8,12,1,16,0.00,0,,165
2013-11-15,50,46,42,48,44,37,100,91,76,30.12,30.06,29.98,10,6,2,7,0,,0.00,8,Rain,142
2013-11-16,71,60,50,66,59,48,100,92,73,29.99,29.87,29.72,10,6,2,17,3,23,0.00,8,Rain-Thunderstorm,150
2013-11-17,82,62,41,70,56,32,94,69,25,30.08,29.78,29.67,10,10,3,17,10,29,0.00,4,Rain-Thunderstorm,219
2013-11-18,66,50,35,39,35,27,100,69,23,30.29,30.21,30.09,10,10,8,9,1,20,0.00,0,,360
2013-11-19,55,45,33,37,34,30,100,75,38,30.34,30.25,30.17,10,10,8,8,1,,0.00,0,,117
2013-11-20,60,46,32,41,34,30,100,69,34,30.19,30.11,30.02,10,10,7,9,1,,0.00,1,,146
2013-11-21,55,50,46,55,50,41,100,94,81,30.19,30.12,30.08,10,5,0,4,0,,0.00,7,Fog-Rain-Thunderstorm,93
2013-11-22,57,47,37,57,41,34,100,84,76,30.46,30.37,30.17,10,9,1,13,5,20,0.00,8,Rain-Thunderstorm,344
2013-11-23,44,38,32,34,25,14,87,60,31,30.64,30.55,30.48,10,10,7,13,5,18,0.00,4,,346
2013-11-24,33,28,23,18,12,10,64,49,38,30.71,30.60,30.44,10,10,9,8,4,,0.00,2,Thunderstorm,38
2013-11-25,35,34,32,34,28,18,100,82,55,30.44,30.30,30.19,10,8,3,5,2,,0.00,8,Rain,104
2013-11-26,48,40,33,34,30,21,100,72,53,30.24,30.13,30.00,10,9,5,14,3,29,0.00,4,,334
2013-11-27,39,31,23,23,16,12,93,58,33,30.41,30.35,30.24,10,10,9,13,6,24,0.00,0,,324
2013-11-28,53,36,19,30,23,18,100,73,30,30.48,30.40,30.35,10,10,9,10,1,,0.00,0,,208
2013-11-29,57,42,26,34,29,23,100,77,36,30.55,30.47,30.40,10,10,8,7,1,,0.00,0,,171
2013-11-30,59,42,26,45,34,25,100,84,51,30.41,30.30,30.19,10,9,5,9,1,18,0.00,0,,198